Capa, South Dakota
Current Conditions -  °F | °C
As of 6:55 AM on Tuesday 21 Oct 2014 (Local Time) from KPHP Reporting Station
Clear Clear  
Wind Chill: 56°   Ceiling: Unl
Heat Index: 56°   Visibility: 10mi
Dew Point: 43°   Wind: 6mph
Humidity: 62%   Direction: NA
Pressure: 29.83"   Gusts: NA
Location:  44.3169°N, 101.368°W
Report Text: KPHP 211255Z AUTO VRB05KT 10SM CLR 13/06 A2983 RMK AO2 SLP095 T01330061
Loading
Personal Weather Stations






























Interactive Weather Map
Tropical Storm Tracking
New forecast layout! Learn more

10-Day Weather Forecast

Advertisements
Track Severe Weather on mobile